Madsen, Utah
Current Conditions -  °F | °C
As of 6:35 AM on Sunday 21 Dec 2014 (Local Time) from KBMC Reporting Station
Overcast Overcast  
Wind Chill: 32°   Ceiling: 1800
Heat Index: 39°   Visibility: 3mi
Dew Point: 35°   Wind: 10mph
Humidity: 86%   Direction: 190°S
Pressure: 29.97"   Gusts: NA
Location:  41.6146°N, 112.071°W
Report Text: KBMC 211335Z AUTO 19009KT 3SM OVC018 04/02 A2997 RMK AO1 T00400018
Loading
Personal Weather Stations






























Interactive Weather Map New forecast layout! Learn more

10-Day Weather Forecast

Advertisements
Track Severe Weather on mobile